LNG Imo — ZCDT6 — position and weather

sailwx.info

Track history (hours):
 
Tides and Currents Weather Stations Pressure Air Temp Water Temp Dewpoint Dewpoint Depression Visibility Wind Speed Wind Dir Waves Ship Positions

LNG Imo

Last reported at 2017-Nov-08 01:08 UTC. Time now 2017-Nov-21 17:41 UTC.
Position N 27°31' W 015°17'.
Warning: this ship's position is 13 days out of date.

Length 288 m; draft 10 m.

Type: Ship (hazmat cat D). MMSI: 310565000.

Date/timePositionNaut miles runAvg speedWind from/ knotsBaromVisibWave heightAir tempDewpointWater temp
2017-Nov-08 01:08N 27°31' W 015°17'110.4
2017-Nov-08 01:00N 27°32' W 015°16'510.4
2017-Nov-08 00:31N 27°37' W 015°14'510.4
2017-Nov-08 00:00N 27°41' W 015°12'510.5
2017-Nov-07 23:30N 27°46' W 015°09'510.4
2017-Nov-07 23:00N 27°51' W 015°07'510.2
2017-Nov-07 22:30N 27°56' W 015°05'510.2
2017-Nov-07 22:00N 28°01' W 015°03'510.2
2017-Nov-07 21:30N 28°06' W 015°01'510.6
2017-Nov-07 21:00N 28°10' W 014°59'510.4
2017-Nov-07 20:30N 28°15' W 014°57'510.4
2017-Nov-07 20:00N 28°20' W 014°55'510.5
2017-Nov-07 19:30N 28°25' W 014°53'510.2
2017-Nov-07 19:00N 28°30' W 014°52'510.3
2017-Nov-07 18:30N 28°35' W 014°50'510.4
2017-Nov-07 18:00N 28°40' W 014°49'610.4
2017-Nov-07 17:26N 28°46' W 014°47'510.3
2017-Nov-07 16:54N 28°51' W 014°45'  
2017-Nov-04 10:28N 46°34' W 003°39'4215.1
2017-Nov-04 07:40N 46°57' W 002°48'615.8
2017-Nov-04 07:17N 47°00' W 002°40'516.0
2017-Nov-04 07:00N 47°02' W 002°34'815.6
2017-Nov-04 06:30N 47°06' W 002°24'4 8.2
2017-Nov-04 06:00N 47°09' W 002°20'611.4
2017-Nov-04 05:30N 47°14' W 002°16'610.7
2017-Nov-04 04:58N 47°18' W 002°09'1 0.3
2017-Nov-04 02:32N 47°18' W 002°08'0 0.0
2017-Nov-04 02:02N 47°18' W 002°08'0 0.0
2017-Nov-03 17:26N 47°18' W 002°08'0 0.0
2017-Nov-03 16:56N 47°18' W 002°08'0 0.0
2017-Nov-03 16:26N 47°18' W 002°08'0 0.0
2017-Nov-03 15:59N 47°18' W 002°08'0 0.0
2017-Nov-03 15:29N 47°18' W 002°08'0 0.0
2017-Nov-03 02:17N 47°18' W 002°08'0 0.2
2017-Nov-03 01:58N 47°18' W 002°08'2 4.3
2017-Nov-03 01:30N 47°17' W 002°11'510.7
2017-Nov-03 01:00N 47°13' W 002°16'510.1
2017-Nov-03 00:30N 47°09' W 002°20'4 6.9
2017-Nov-03 00:00N 47°06' W 002°23'4 7.3
2017-Nov-02 23:30N 47°04' W 002°27'3 5.6
2017-Nov-02 23:00N 47°03' W 002°31'5 8.3
2017-Nov-02 22:26N 47°00' W 002°37'410.3
2017-Nov-02 22:00N 46°59' W 002°43'713.4
2017-Nov-02 21:30N 46°59' W 002°53'610.7
2017-Nov-02 20:55N 46°58' W 003°02'612.1
2017-Nov-02 20:27N 46°57' W 003°11'512.1
2017-Nov-02 20:00N 46°56' W 003°18'711.9
2017-Nov-02 19:24N 46°55' W 003°29'410.2
2017-Nov-02 19:00N 46°54' W 003°34'4 8.6
2017-Nov-02 18:30N 46°50' W 003°32'611.8
2017-Nov-02 18:00N 46°45' W 003°27'511.3
2017-Nov-02 17:30N 46°41' W 003°22'611.3
2017-Nov-02 17:00N 46°36' W 003°16'611.4
2017-Nov-02 16:30N 46°32' W 003°11'510.9
2017-Nov-02 16:00N 46°27' W 003°09'2 3.4
2017-Nov-02 15:30N 46°29' W 003°10'611.2
2017-Nov-02 15:00N 46°33' W 003°15'611.2
2017-Nov-02 14:30N 46°37' W 003°20'611.4
2017-Nov-02 14:00N 46°42' W 003°25'611.5
2017-Nov-02 13:30N 46°46' W 003°31'611.2
2017-Nov-02 13:00N 46°50' W 003°36'511.0
2017-Nov-02 12:30N 46°54' W 003°41'510.9
2017-Nov-02 12:00N 46°59' W 003°47'510.8
2017-Nov-02 11:30N 47°03' W 003°51'610.9
2017-Nov-02 11:00N 47°08' W 003°56'510.9
2017-Nov-02 10:30N 47°12' W 004°01'510.8
2017-Nov-02 10:00N 47°16' W 004°06'510.2
2017-Nov-02 09:30N 47°19' W 004°12'4 8.9
2017-Nov-02 09:00N 47°17' W 004°06'611.6
2017-Nov-02 08:30N 47°12' W 004°01'611.3
2017-Nov-02 08:00N 47°07' W 003°57'611.4
2017-Nov-02 07:30N 47°02' W 003°54'611.6
2017-Nov-02 07:00N 46°57' W 003°49'611.6
2017-Nov-02 06:30N 46°53' W 003°43'611.3
2017-Nov-02 06:00N 46°49' W 003°38'611.3
2017-Nov-02 05:30N 46°44' W 003°33'611.3
2017-Nov-02 05:00N 46°40' W 003°27'611.5
2017-Nov-02 04:30N 46°36' W 003°22'611.5
2017-Nov-02 04:00N 46°31' W 003°16'611.2
2017-Nov-02 03:30N 46°27' W 003°11'611.1
2017-Nov-02 03:00N 46°23' W 003°06'611.1
2017-Nov-02 02:30N 46°18' W 003°01'3 6.7
2017-Nov-02 02:01N 46°17' W 002°57'611.2
2017-Nov-02 01:29N 46°21' W 003°02'511.3
2017-Nov-02 01:01N 46°25' W 003°07'611.5
2017-Nov-02 00:30N 46°29' W 003°14'611.3
2017-Nov-02 00:00N 46°33' W 003°19'811.0
2017-Nov-01 23:17N 46°39' W 003°26'411.0
2017-Nov-01 22:55N 46°43' W 003°29'511.0
2017-Nov-01 22:30N 46°47' W 003°33'2210.8
2017-Nov-01 20:29N 47°05' W 003°50'1110.8
2017-Nov-01 19:25N 47°14' W 004°01'710.4
2017-Nov-01 18:46N 47°19' W 004°07'1 2.8
2017-Nov-01 18:29N 47°20' W 004°06'39 2.4
2017-Nov-01 02:00N 46°47' W 003°35'510.9
2017-Nov-01 01:30N 46°42' W 003°32'611.3
2017-Nov-01 01:00N 46°37' W 003°27'612.2
2017-Nov-01 00:30N 46°33' W 003°21'510.1
2017-Oct-31 23:59N 46°29' W 003°16'511.0
2017-Oct-31 23:30N 46°27' W 003°09'611.3
2017-Oct-31 23:00N 46°23' W 003°03'510.1
2017-Oct-31 22:31N 46°19' W 002°59'6 9.6
2017-Oct-31 21:53N 46°22' W 003°06'410.2
2017-Oct-31 21:29N 46°25' W 003°10'1610.2
2017-Oct-31 19:55N 46°38' W 003°25'2110.1
2017-Oct-31 17:53N 46°54' W 003°42'4 9.7
2017-Oct-31 17:28N 46°57' W 003°46'1210.3
2017-Oct-31 16:19N 47°06' W 003°56'310.4
2017-Oct-31 16:00N 47°09' W 003°59'910.4
2017-Oct-31 15:10N 47°16' W 004°07'210.5
2017-Oct-31 14:59N 47°18' W 004°09'510.5
2017-Oct-31 14:29N 47°22' W 004°14'510.7
2017-Oct-31 14:00N 47°25' W 004°19'5 9.5
2017-Oct-31 13:30N 47°28' W 004°24'5 9.6
2017-Oct-31 12:59N 47°25' W 004°19'511.2
2017-Oct-31 12:30N 47°21' W 004°14'611.3
2017-Oct-31 12:00N 47°17' W 004°08'611.3
2017-Oct-31 11:30N 47°13' W 004°03'511.0
2017-Oct-31 11:00N 47°08' W 003°59'611.3
2017-Oct-31 10:30N 47°03' W 003°54'611.4
2017-Oct-31 10:00N 46°59' W 003°49'611.3
2017-Oct-31 09:29N 46°54' W 003°44'611.4
2017-Oct-31 09:00N 46°50' W 003°38'611.4
2017-Oct-31 08:30N 46°45' W 003°33'611.4
2017-Oct-31 08:00N 46°41' W 003°28'711.3
2017-Oct-31 07:22N 46°35' W 003°21'411.4
2017-Oct-31 07:00N 46°32' W 003°17'611.3
2017-Oct-31 06:27N 46°28' W 003°12'511.3
2017-Oct-31 06:00N 46°24' W 003°06'611.3
2017-Oct-31 05:30N 46°20' W 003°01'51 8.7
2017-Oct-30 23:37N 46°59' W 003°48'310.7
2017-Oct-30 23:21N 47°01' W 003°51'410.7
2017-Oct-30 22:58N 47°04' W 003°55'810.8
2017-Oct-30 22:16N 47°10' W 004°03'910.7
2017-Oct-30 21:25N 47°16' W 004°11'510.0
2017-Oct-30 20:55N 47°20' W 004°17'610.1
2017-Oct-30 20:20N 47°15' W 004°12'511.4
2017-Oct-30 19:52N 47°11' W 004°07'711.5
2017-Oct-30 19:15N 47°06' W 003°60'2511.4
2017-Oct-30 17:05N 46°47' W 003°37'111.0
2017-Oct-30 17:00N 46°46' W 003°36'711.2
2017-Oct-30 16:22N 46°41' W 003°29'47 4.5
2017-Oct-30 06:06N 47°18' W 004°11'1 6.0
2017-Oct-30 06:00N 47°18' W 004°10'511.0
2017-Oct-30 05:30N 47°14' W 004°06'611.5
2017-Oct-30 05:00N 47°09' W 004°01'711.5
2017-Oct-30 04:25N 47°03' W 003°56'511.2
2017-Oct-30 03:58N 46°59' W 003°51'511.3
2017-Oct-30 03:30N 46°55' W 003°47'711.2
2017-Oct-30 02:55N 46°50' W 003°41'15 1.4
2017-Oct-29 16:25N 47°04' W 003°49'511.3
2017-Oct-29 15:57N 47°08' W 003°54'811.1
2017-Oct-29 15:15N 47°14' W 004°01'311.2
2017-Oct-29 14:57N 47°17' W 004°04'511.2
2017-Oct-29 14:28N 47°21' W 004°09'1 2.4
2017-Oct-29 14:00N 47°22' W 004°08'610.5
2017-Oct-29 13:28N 47°17' W 004°03'510.6
2017-Oct-29 13:00N 47°13' W 003°59'510.6
2017-Oct-29 12:29N 47°09' W 003°54'710.6
2017-Oct-29 11:51N 47°04' W 003°48'510.6
2017-Oct-29 11:22N 46°59' W 003°43'32 7.6
2017-Oct-29 07:06N 46°27' W 003°46'611.2
2017-Oct-29 06:33N 46°24' W 003°54'1311.0
2017-Oct-29 05:20N 46°16' W 004°10'  
Track history (hours):
 
Tides and Currents Weather Stations Pressure Air Temp Water Temp Dewpoint Dewpoint Depression Visibility Wind Speed Wind Dir Waves Ship Positions

LNG Imo

Last reported at 2017-Nov-08 01:08 UTC. Time now 2017-Nov-21 17:41 UTC.
Position N 27°31' W 015°17'.
Warning: this ship's position is 13 days out of date.

Length 288 m; draft 10 m.

Type: Ship (hazmat cat D). MMSI: 310565000.

Date/timePositionNaut miles runAvg speedWind from/ knotsBaromVisibWave heightAir tempDewpointWater temp
2017-Nov-08 01:08N 27°31' W 015°17'110.4
2017-Nov-08 01:00N 27°32' W 015°16'510.4
2017-Nov-08 00:31N 27°37' W 015°14'510.4
2017-Nov-08 00:00N 27°41' W 015°12'510.5
2017-Nov-07 23:30N 27°46' W 015°09'510.4
2017-Nov-07 23:00N 27°51' W 015°07'510.2
2017-Nov-07 22:30N 27°56' W 015°05'510.2
2017-Nov-07 22:00N 28°01' W 015°03'510.2
2017-Nov-07 21:30N 28°06' W 015°01'510.6
2017-Nov-07 21:00N 28°10' W 014°59'510.4
2017-Nov-07 20:30N 28°15' W 014°57'510.4
2017-Nov-07 20:00N 28°20' W 014°55'510.5
2017-Nov-07 19:30N 28°25' W 014°53'510.2
2017-Nov-07 19:00N 28°30' W 014°52'510.3
2017-Nov-07 18:30N 28°35' W 014°50'510.4
2017-Nov-07 18:00N 28°40' W 014°49'610.4
2017-Nov-07 17:26N 28°46' W 014°47'510.3
2017-Nov-07 16:54N 28°51' W 014°45'  
2017-Nov-04 10:28N 46°34' W 003°39'4215.1
2017-Nov-04 07:40N 46°57' W 002°48'615.8
2017-Nov-04 07:17N 47°00' W 002°40'516.0
2017-Nov-04 07:00N 47°02' W 002°34'815.6
2017-Nov-04 06:30N 47°06' W 002°24'4 8.2
2017-Nov-04 06:00N 47°09' W 002°20'611.4
2017-Nov-04 05:30N 47°14' W 002°16'610.7
2017-Nov-04 04:58N 47°18' W 002°09'1 0.3
2017-Nov-04 02:32N 47°18' W 002°08'0 0.0
2017-Nov-04 02:02N 47°18' W 002°08'0 0.0
2017-Nov-03 17:26N 47°18' W 002°08'0 0.0
2017-Nov-03 16:56N 47°18' W 002°08'0 0.0
2017-Nov-03 16:26N 47°18' W 002°08'0 0.0
2017-Nov-03 15:59N 47°18' W 002°08'0 0.0
2017-Nov-03 15:29N 47°18' W 002°08'0 0.0
2017-Nov-03 02:17N 47°18' W 002°08'0 0.2
2017-Nov-03 01:58N 47°18' W 002°08'2 4.3
2017-Nov-03 01:30N 47°17' W 002°11'510.7
2017-Nov-03 01:00N 47°13' W 002°16'510.1
2017-Nov-03 00:30N 47°09' W 002°20'4 6.9
2017-Nov-03 00:00N 47°06' W 002°23'4 7.3
2017-Nov-02 23:30N 47°04' W 002°27'3 5.6
2017-Nov-02 23:00N 47°03' W 002°31'5 8.3
2017-Nov-02 22:26N 47°00' W 002°37'410.3
2017-Nov-02 22:00N 46°59' W 002°43'713.4
2017-Nov-02 21:30N 46°59' W 002°53'610.7
2017-Nov-02 20:55N 46°58' W 003°02'612.1
2017-Nov-02 20:27N 46°57' W 003°11'512.1
2017-Nov-02 20:00N 46°56' W 003°18'711.9
2017-Nov-02 19:24N 46°55' W 003°29'410.2
2017-Nov-02 19:00N 46°54' W 003°34'4 8.6
2017-Nov-02 18:30N 46°50' W 003°32'611.8
2017-Nov-02 18:00N 46°45' W 003°27'511.3
2017-Nov-02 17:30N 46°41' W 003°22'611.3
2017-Nov-02 17:00N 46°36' W 003°16'611.4
2017-Nov-02 16:30N 46°32' W 003°11'510.9
2017-Nov-02 16:00N 46°27' W 003°09'2 3.4
2017-Nov-02 15:30N 46°29' W 003°10'611.2
2017-Nov-02 15:00N 46°33' W 003°15'611.2
2017-Nov-02 14:30N 46°37' W 003°20'611.4
2017-Nov-02 14:00N 46°42' W 003°25'611.5
2017-Nov-02 13:30N 46°46' W 003°31'611.2
2017-Nov-02 13:00N 46°50' W 003°36'511.0
2017-Nov-02 12:30N 46°54' W 003°41'510.9
2017-Nov-02 12:00N 46°59' W 003°47'510.8
2017-Nov-02 11:30N 47°03' W 003°51'610.9
2017-Nov-02 11:00N 47°08' W 003°56'510.9
2017-Nov-02 10:30N 47°12' W 004°01'510.8
2017-Nov-02 10:00N 47°16' W 004°06'510.2
2017-Nov-02 09:30N 47°19' W 004°12'4 8.9
2017-Nov-02 09:00N 47°17' W 004°06'611.6
2017-Nov-02 08:30N 47°12' W 004°01'611.3
2017-Nov-02 08:00N 47°07' W 003°57'611.4
2017-Nov-02 07:30N 47°02' W 003°54'611.6
2017-Nov-02 07:00N 46°57' W 003°49'611.6
2017-Nov-02 06:30N 46°53' W 003°43'611.3
2017-Nov-02 06:00N 46°49' W 003°38'611.3
2017-Nov-02 05:30N 46°44' W 003°33'611.3
2017-Nov-02 05:00N 46°40' W 003°27'611.5
2017-Nov-02 04:30N 46°36' W 003°22'611.5
2017-Nov-02 04:00N 46°31' W 003°16'611.2
2017-Nov-02 03:30N 46°27' W 003°11'611.1
2017-Nov-02 03:00N 46°23' W 003°06'611.1
2017-Nov-02 02:30N 46°18' W 003°01'3 6.7
2017-Nov-02 02:01N 46°17' W 002°57'611.2
2017-Nov-02 01:29N 46°21' W 003°02'511.3
2017-Nov-02 01:01N 46°25' W 003°07'611.5
2017-Nov-02 00:30N 46°29' W 003°14'611.3
2017-Nov-02 00:00N 46°33' W 003°19'811.0
2017-Nov-01 23:17N 46°39' W 003°26'411.0
2017-Nov-01 22:55N 46°43' W 003°29'511.0
2017-Nov-01 22:30N 46°47' W 003°33'2210.8
2017-Nov-01 20:29N 47°05' W 003°50'1110.8
2017-Nov-01 19:25N 47°14' W 004°01'710.4
2017-Nov-01 18:46N 47°19' W 004°07'1 2.8
2017-Nov-01 18:29N 47°20' W 004°06'39 2.4
2017-Nov-01 02:00N 46°47' W 003°35'510.9
2017-Nov-01 01:30N 46°42' W 003°32'611.3
2017-Nov-01 01:00N 46°37' W 003°27'612.2
2017-Nov-01 00:30N 46°33' W 003°21'510.1
2017-Oct-31 23:59N 46°29' W 003°16'511.0
2017-Oct-31 23:30N 46°27' W 003°09'611.3
2017-Oct-31 23:00N 46°23' W 003°03'510.1
2017-Oct-31 22:31N 46°19' W 002°59'6 9.6
2017-Oct-31 21:53N 46°22' W 003°06'410.2
2017-Oct-31 21:29N 46°25' W 003°10'1610.2
2017-Oct-31 19:55N 46°38' W 003°25'2110.1
2017-Oct-31 17:53N 46°54' W 003°42'4 9.7
2017-Oct-31 17:28N 46°57' W 003°46'1210.3
2017-Oct-31 16:19N 47°06' W 003°56'310.4
2017-Oct-31 16:00N 47°09' W 003°59'910.4
2017-Oct-31 15:10N 47°16' W 004°07'210.5
2017-Oct-31 14:59N 47°18' W 004°09'510.5
2017-Oct-31 14:29N 47°22' W 004°14'510.7
2017-Oct-31 14:00N 47°25' W 004°19'5 9.5
2017-Oct-31 13:30N 47°28' W 004°24'5 9.6
2017-Oct-31 12:59N 47°25' W 004°19'511.2
2017-Oct-31 12:30N 47°21' W 004°14'611.3
2017-Oct-31 12:00N 47°17' W 004°08'611.3
2017-Oct-31 11:30N 47°13' W 004°03'511.0
2017-Oct-31 11:00N 47°08' W 003°59'611.3
2017-Oct-31 10:30N 47°03' W 003°54'611.4
2017-Oct-31 10:00N 46°59' W 003°49'611.3
2017-Oct-31 09:29N 46°54' W 003°44'611.4
2017-Oct-31 09:00N 46°50' W 003°38'611.4
2017-Oct-31 08:30N 46°45' W 003°33'611.4
2017-Oct-31 08:00N 46°41' W 003°28'711.3
2017-Oct-31 07:22N 46°35' W 003°21'411.4
2017-Oct-31 07:00N 46°32' W 003°17'611.3
2017-Oct-31 06:27N 46°28' W 003°12'511.3
2017-Oct-31 06:00N 46°24' W 003°06'611.3
2017-Oct-31 05:30N 46°20' W 003°01'51 8.7
2017-Oct-30 23:37N 46°59' W 003°48'310.7
2017-Oct-30 23:21N 47°01' W 003°51'410.7
2017-Oct-30 22:58N 47°04' W 003°55'810.8
2017-Oct-30 22:16N 47°10' W 004°03'910.7
2017-Oct-30 21:25N 47°16' W 004°11'510.0
2017-Oct-30 20:55N 47°20' W 004°17'610.1
2017-Oct-30 20:20N 47°15' W 004°12'511.4
2017-Oct-30 19:52N 47°11' W 004°07'711.5
2017-Oct-30 19:15N 47°06' W 003°60'2511.4
2017-Oct-30 17:05N 46°47' W 003°37'111.0
2017-Oct-30 17:00N 46°46' W 003°36'711.2
2017-Oct-30 16:22N 46°41' W 003°29'47 4.5
2017-Oct-30 06:06N 47°18' W 004°11'1 6.0
2017-Oct-30 06:00N 47°18' W 004°10'511.0
2017-Oct-30 05:30N 47°14' W 004°06'611.5
2017-Oct-30 05:00N 47°09' W 004°01'711.5
2017-Oct-30 04:25N 47°03' W 003°56'511.2
2017-Oct-30 03:58N 46°59' W 003°51'511.3
2017-Oct-30 03:30N 46°55' W 003°47'711.2
2017-Oct-30 02:55N 46°50' W 003°41'15 1.4
2017-Oct-29 16:25N 47°04' W 003°49'511.3
2017-Oct-29 15:57N 47°08' W 003°54'811.1
2017-Oct-29 15:15N 47°14' W 004°01'311.2
2017-Oct-29 14:57N 47°17' W 004°04'511.2
2017-Oct-29 14:28N 47°21' W 004°09'1 2.4
2017-Oct-29 14:00N 47°22' W 004°08'610.5
2017-Oct-29 13:28N 47°17' W 004°03'510.6
2017-Oct-29 13:00N 47°13' W 003°59'510.6
2017-Oct-29 12:29N 47°09' W 003°54'710.6
2017-Oct-29 11:51N 47°04' W 003°48'510.6
2017-Oct-29 11:22N 46°59' W 003°43'32 7.6
2017-Oct-29 07:06N 46°27' W 003°46'611.2
2017-Oct-29 06:33N 46°24' W 003°54'1311.0
2017-Oct-29 05:20N 46°16' W 004°10'  

Dump ship's entire track history